Time;durP1;ratioP1;P1;durP2;ratioP2;P2;SDS_P1;SDS_P2;PMS_P1;PMS_P2;Temp;Humidity;BMP_temperature;BMP_pressure;BME280_temperature;BME280_humidity;BME280_pressure;Samples;Min_cycle;Max_cycle;Signal;HPM_P1;HPM_P2
2022/12/20 00:01:17;;;;;;;30.65;25.55;;;;;;;3.67;63.62;98555.59;8314093;28;20407;-64
2022/12/20 00:05:20;;;;;;;34.73;23.67;;;;;;;3.33;63.05;98549.00;8315519;28;20237;-64
2022/12/20 00:09:25;;;;;;;33.77;22.97;;;;;;;2.86;65.67;98562.88;8315361;28;20226;-64
2022/12/20 00:13:28;;;;;;;30.30;21.30;;;;;;;3.06;65.28;98526.09;8315367;28;20230;-64
2022/12/20 00:17:31;;;;;;;35.37;23.40;;;;;;;2.88;64.98;98552.63;8315230;28;20230;-65
2022/12/20 00:21:35;;;;;;;30.03;21.87;;;;;;;3.52;63.70;98553.97;8315248;28;20386;-64
2022/12/20 00:25:39;;;;;;;32.77;21.90;;;;;;;3.42;64.32;98568.56;8314802;28;20251;-64
2022/12/20 00:29:42;;;;;;;31.90;22.03;;;;;;;3.21;65.63;98541.38;8314847;28;20230;-65
2022/12/20 00:33:46;;;;;;;30.53;21.50;;;;;;;3.59;63.60;98534.31;8314572;28;20548;-65
2022/12/20 00:37:49;;;;;;;30.37;21.07;;;;;;;3.33;64.40;98568.59;8314462;28;20230;-65
2022/12/20 00:41:54;;;;;;;29.30;21.83;;;;;;;3.25;66.05;98547.31;8313457;28;20552;-66
2022/12/20 00:45:57;;;;;;;31.53;21.70;;;;;;;3.36;64.80;98550.69;8314113;28;20238;-65
2022/12/20 00:50:00;;;;;;;30.57;21.03;;;;;;;3.53;64.40;98551.41;8314141;28;20238;-64
2022/12/20 00:54:03;;;;;;;31.83;21.93;;;;;;;3.40;64.66;98531.03;8313741;28;20525;-64
2022/12/20 00:58:10;;;;;;;32.53;22.83;;;;;;;2.95;66.38;98533.81;8313331;28;20348;-66
2022/12/20 01:02:12;;;;;;;30.00;21.87;;;;;;;3.14;65.84;98532.00;8313665;28;20290;-64
2022/12/20 01:06:16;;;;;;;31.57;21.60;;;;;;;3.21;66.01;98532.84;8313962;28;20234;-64
2022/12/20 01:10:19;;;;;;;30.47;20.80;;;;;;;3.44;65.06;98536.09;8313270;28;20234;-64
2022/12/20 01:14:23;;;;;;;30.73;20.70;;;;;;;3.77;63.95;98531.63;8313393;28;20394;-64
2022/12/20 01:18:26;;;;;;;29.17;20.93;;;;;;;3.37;65.31;98526.78;8313080;28;20241;-65
2022/12/20 01:22:28;;;;;;;31.30;21.27;;;;;;;3.50;64.77;98519.84;8312515;28;20230;-65
2022/12/20 01:26:31;;;;;;;28.73;20.50;;;;;;;3.38;65.23;98500.31;8312722;28;20340;-65
2022/12/20 01:30:35;;;;;;;30.13;20.33;;;;;;;3.85;62.94;98526.44;8312646;28;20234;-64
2022/12/20 01:34:38;;;;;;;29.57;20.47;;;;;;;3.54;64.27;98529.19;8312492;28;20394;-65
2022/12/20 01:38:41;;;;;;;28.67;20.73;;;;;;;3.19;65.90;98540.53;8312611;28;20249;-64
2022/12/20 01:42:45;;;;;;;27.27;20.10;;;;;;;3.09;65.68;98511.56;8312220;28;20350;-65
2022/12/20 01:46:51;;;;;;;27.60;19.33;;;;;;;3.70;62.94;98535.09;8312604;28;20230;-65
2022/12/20 01:50:53;;;;;;;30.77;21.03;;;;;;;3.56;63.57;98534.31;8311710;28;20237;-65
2022/12/20 01:55:00;;;;;;;28.67;20.30;;;;;;;3.79;62.87;98540.13;8312188;28;20229;-65
2022/12/20 01:59:03;;;;;;;30.10;21.63;;;;;;;3.24;64.61;98531.13;8312017;28;20241;-64
2022/12/20 02:03:10;;;;;;;30.80;21.53;;;;;;;2.65;64.57;98445.31;8312122;28;20243;-64
2022/12/20 02:07:19;;;;;;;27.47;19.83;;;;;;;3.48;64.40;98521.56;8312278;28;20226;-65
2022/12/20 02:11:34;;;;;;;31.23;21.90;;;;;;;3.50;63.76;98523.28;8311877;28;20218;-64
2022/12/20 02:15:43;;;;;;;29.50;20.93;;;;;;;3.31;64.64;98498.63;8311906;28;20233;-65
2022/12/20 02:20:06;;;;;;;27.67;20.20;;;;;;;2.87;66.23;98482.69;8311973;28;20266;-65
2022/12/20 02:24:45;;;;;;;29.10;20.17;;;;;;;3.37;64.78;98482.38;8281318;28;20293;-65
2022/12/20 02:29:02;;;;;;;27.73;20.40;;;;;;;3.10;65.65;98449.31;8311918;28;20234;-65
2022/12/20 02:33:09;;;;;;;31.63;21.70;;;;;;;2.74;66.40;98425.66;8314118;28;20226;-65
2022/12/20 02:37:12;;;;;;;28.67;21.07;;;;;;;3.21;65.40;98451.78;8318237;28;20254;-64
2022/12/20 02:41:17;;;;;;;28.40;20.27;;;;;;;2.89;66.59;98459.66;8318113;28;20245;-65
2022/12/20 02:45:22;;;;;;;30.57;21.47;;;;;;;3.22;66.21;98460.31;8318272;28;20222;-64
2022/12/20 02:49:29;;;;;;;31.20;21.50;;;;;;;3.01;65.40;98449.38;8318166;28;20540;-64
2022/12/20 02:53:32;;;;;;;28.70;21.27;;;;;;;3.33;65.13;98420.13;8318183;28;20222;-66
2022/12/20 02:57:41;;;;;;;30.17;21.50;;;;;;;3.15;65.33;98456.94;8317769;28;20241;-65
2022/12/20 03:01:46;;;;;;;28.73;21.07;;;;;;;3.30;64.83;98454.28;8317693;28;20329;-66
2022/12/20 03:05:52;;;;;;;28.47;20.70;;;;;;;3.56;64.50;98475.41;8317891;28;20289;-65
2022/12/20 03:09:55;;;;;;;31.87;22.10;;;;;;;3.62;63.77;98471.09;8317410;28;20230;-64
2022/12/20 03:13:58;;;;;;;30.50;20.73;;;;;;;2.81;66.32;98452.03;8317553;28;20234;-64
2022/12/20 03:18:00;;;;;;;31.40;21.23;;;;;;;3.75;64.12;98456.50;8317493;28;20230;-64
2022/12/20 03:22:04;;;;;;;30.73;21.43;;;;;;;4.30;61.76;98501.22;8317763;28;20234;-64
2022/12/20 03:26:07;;;;;;;31.27;21.27;;;;;;;3.52;63.63;98477.16;8318079;28;20325;-65
2022/12/20 03:30:11;;;;;;;28.50;20.73;;;;;;;3.64;63.40;98465.97;8317254;28;20234;-65
2022/12/20 03:34:14;;;;;;;30.03;21.23;;;;;;;2.93;66.16;98436.63;8317053;28;20234;-66
2022/12/20 03:38:18;;;;;;;30.23;21.83;;;;;;;3.37;64.60;98459.34;8316756;28;20233;-65
2022/12/20 03:42:21;;;;;;;30.57;21.87;;;;;;;3.57;63.65;98464.31;8316229;28;20245;-64
2022/12/20 03:46:24;;;;;;;32.03;21.77;;;;;;;3.68;64.04;98460.81;8316503;28;20281;-65
2022/12/20 03:50:27;;;;;;;33.33;23.17;;;;;;;2.80;67.03;98446.91;8316501;28;20233;-65
2022/12/20 03:54:31;;;;;;;29.13;21.30;;;;;;;3.11;66.23;98414.31;8316140;28;20320;-64
2022/12/20 03:58:34;;;;;;;29.87;20.80;;;;;;;3.67;65.05;98448.00;8315697;28;20257;-64
2022/12/20 04:02:37;;;;;;;29.77;21.83;;;;;;;3.06;65.23;98436.53;8315877;28;20370;-64
2022/12/20 04:06:40;;;;;;;28.57;21.13;;;;;;;3.21;65.44;98423.63;8315983;28;20266;-64
2022/12/20 04:15:05;;;;;;;30.87;21.70;;;;;;;3.16;65.93;98407.47;8314806;28;20265;-64
2022/12/20 04:19:09;;;;;;;31.67;21.53;;;;;;;2.90;66.69;98411.06;8315179;28;20532;-64
2022/12/20 04:23:11;;;;;;;31.07;21.73;;;;;;;3.05;66.10;98407.53;8315082;28;20230;-64
2022/12/20 04:27:15;;;;;;;29.33;20.83;;;;;;;3.04;66.54;98404.97;8315322;28;20237;-65
2022/12/20 04:31:18;;;;;;;29.43;21.50;;;;;;;2.98;66.98;98415.28;8314600;28;20245;-64
2022/12/20 04:35:26;;;;;;;31.30;21.07;;;;;;;2.76;66.55;98417.97;8314727;28;20230;-64
2022/12/20 04:39:28;;;;;;;31.27;21.00;;;;;;;2.73;67.14;98412.88;8314364;28;20234;-65
2022/12/20 04:43:33;;;;;;;29.60;21.83;;;;;;;3.10;65.74;98413.47;8314257;28;20230;-65
2022/12/20 04:47:36;;;;;;;30.93;21.63;;;;;;;3.02;66.08;98412.66;8314133;28;20222;-64
2022/12/20 04:51:38;;;;;;;31.83;21.67;;;;;;;2.56;67.98;98387.38;8314102;28;20226;-64
2022/12/20 04:55:41;;;;;;;32.57;21.83;;;;;;;2.88;66.80;98396.59;8313389;28;20233;-65
2022/12/20 04:59:46;;;;;;;27.37;20.07;;;;;;;2.88;67.59;98394.88;8314337;28;20233;-64
2022/12/20 05:03:49;;;;;;;29.53;20.70;;;;;;;3.00;65.86;98378.56;8313908;28;20329;-64
2022/12/20 05:07:52;;;;;;;29.30;20.83;;;;;;;3.19;65.48;98392.06;8313094;28;20226;-66
2022/12/20 05:11:55;;;;;;;30.93;21.50;;;;;;;2.90;67.39;98382.91;8313797;28;20425;-64
2022/12/20 05:16:01;;;;;;;27.77;20.90;;;;;;;3.15;66.61;98390.41;8313239;28;20457;-65
2022/12/20 05:20:07;;;;;;;29.30;21.23;;;;;;;2.98;66.03;98385.41;8313427;28;20314;-64
2022/12/20 05:28:30;;;;;;;29.97;21.47;;;;;;;3.65;64.05;98391.66;8312598;28;20234;-64
2022/12/20 05:32:34;;;;;;;27.23;20.07;;;;;;;3.32;65.06;98396.22;8312836;28;20325;-65
2022/12/20 05:36:37;;;;;;;28.43;20.97;;;;;;;3.60;63.73;98382.31;8312840;28;20227;-65
2022/12/20 05:40:41;;;;;;;28.77;21.07;;;;;;;3.36;64.98;98371.47;8312325;28;20234;-64
2022/12/20 05:44:44;;;;;;;32.87;22.37;;;;;;;3.68;63.68;98371.16;8312698;28;20246;-63
2022/12/20 05:48:48;;;;;;;28.20;20.37;;;;;;;3.68;63.80;98383.97;8312261;28;20226;-66
2022/12/20 05:52:51;;;;;;;28.17;20.23;;;;;;;3.02;65.34;98361.50;8312158;28;20237;-64
2022/12/20 05:56:54;;;;;;;28.93;21.27;;;;;;;3.46;64.70;98385.84;8311699;28;20234;-65
2022/12/20 06:00:57;;;;;;;27.97;21.17;;;;;;;3.31;65.07;98380.88;8312192;28;20493;-65
2022/12/20 06:05:01;;;;;;;29.97;21.57;;;;;;;2.97;66.59;98354.72;8312424;28;20510;-65
2022/12/20 06:09:04;;;;;;;30.00;21.40;;;;;;;3.80;63.74;98362.47;8312167;28;20234;-64
2022/12/20 06:13:08;;;;;;;30.63;22.20;;;;;;;3.09;64.99;98365.72;8312334;28;20433;-64
2022/12/20 06:17:12;;;;;;;27.40;20.03;;;;;;;3.72;64.67;98374.53;8312029;28;20226;-66
2022/12/20 06:21:16;;;;;;;30.03;21.80;;;;;;;3.79;64.07;98378.72;8312090;28;20233;-65
2022/12/20 06:25:22;;;;;;;29.13;20.87;;;;;;;3.76;64.27;98370.22;8313142;28;20238;-66
2022/12/20 06:29:25;;;;;;;30.13;21.73;;;;;;;3.43;64.83;98383.34;8312813;28;20230;-66
2022/12/20 06:33:30;;;;;;;30.90;22.70;;;;;;;3.76;64.21;98383.88;8311701;28;20407;-66
2022/12/20 06:37:35;;;;;;;29.30;22.13;;;;;;;3.75;64.11;98382.19;8311820;28;20226;-65
2022/12/20 06:41:37;;;;;;;31.17;23.97;;;;;;;4.02;63.45;98363.09;8311436;28;20396;-65
2022/12/20 06:45:40;;;;;;;30.70;23.63;;;;;;;3.91;62.98;98352.97;8311331;28;20229;-66
2022/12/20 06:49:44;;;;;;;27.63;20.57;;;;;;;4.28;62.49;98378.19;8311243;28;20535;-65
2022/12/20 06:53:48;;;;;;;27.57;20.90;;;;;;;3.92;63.64;98402.50;8311634;28;20451;-66
2022/12/20 06:57:51;;;;;;;28.87;21.87;;;;;;;3.83;64.09;98406.00;8311161;28;20234;-66
2022/12/20 07:01:54;;;;;;;29.17;21.53;;;;;;;3.94;63.28;98398.22;8310287;28;20230;-66
2022/12/20 07:05:57;;;;;;;30.30;22.83;;;;;;;3.57;64.35;98380.66;8310962;28;20579;-65
2022/12/20 07:10:02;;;;;;;26.63;20.63;;;;;;;3.90;64.15;98393.97;8311418;28;20551;-66
2022/12/20 07:14:05;;;;;;;29.67;21.53;;;;;;;3.73;64.54;98376.22;8311333;28;20234;-65
2022/12/20 07:18:08;;;;;;;29.33;21.43;;;;;;;3.64;64.40;98368.66;8312005;28;20563;-66
2022/12/20 07:22:10;;;;;;;27.80;20.03;;;;;;;3.65;64.79;98353.25;8317031;28;20233;-66
2022/12/20 07:26:15;;;;;;;28.83;21.73;;;;;;;3.53;64.33;98361.06;8317045;28;20249;-65
2022/12/20 07:30:19;;;;;;;28.93;20.77;;;;;;;3.10;65.69;98318.78;8316703;28;20237;-65
2022/12/20 07:34:22;;;;;;;29.07;21.60;;;;;;;3.59;65.15;98368.69;8316332;28;20549;-66
2022/12/20 07:38:25;;;;;;;29.60;21.80;;;;;;;3.39;64.52;98321.91;8316685;28;20226;-65
2022/12/20 07:42:29;;;;;;;27.93;21.03;;;;;;;3.56;64.63;98358.47;8316300;28;20234;-65
2022/12/20 07:46:38;;;;;;;26.63;20.20;;;;;;;3.86;63.54;98359.84;8316561;28;20249;-66
2022/12/20 07:50:42;;;;;;;28.90;21.23;;;;;;;3.60;64.12;98346.47;8316079;28;20401;-65
2022/12/20 07:54:47;;;;;;;28.83;20.60;;;;;;;3.55;64.60;98358.50;8316161;28;20229;-66
2022/12/20 07:58:55;;;;;;;29.93;21.23;;;;;;;3.85;64.17;98347.06;8315939;28;20525;-66
2022/12/20 08:03:02;;;;;;;31.60;21.10;;;;;;;3.63;63.98;98334.47;8315294;28;20226;-66
2022/12/20 08:07:05;;;;;;;31.00;21.37;;;;;;;3.31;64.98;98325.44;8315690;28;20249;-66
2022/12/20 08:11:09;;;;;;;29.07;21.63;;;;;;;3.50;65.23;98335.47;8315222;28;20230;-66
2022/12/20 08:15:14;;;;;;;29.10;21.30;;;;;;;3.62;64.60;98337.94;8315558;28;20321;-66
2022/12/20 08:19:17;;;;;;;28.60;20.63;;;;;;;3.83;63.91;98326.59;8315583;28;20237;-66
2022/12/20 08:23:20;;;;;;;29.60;21.87;;;;;;;3.88;64.03;98321.41;8315458;28;20229;-66
2022/12/20 08:27:22;;;;;;;26.77;20.73;;;;;;;3.94;63.59;98323.91;8315253;28;20237;-67
2022/12/20 08:31:26;;;;;;;27.97;20.43;;;;;;;4.24;63.20;98337.19;8313554;28;20227;-67
2022/12/20 08:35:30;;;;;;;29.13;21.87;;;;;;;4.06;63.64;98334.00;8314868;28;20230;-68
2022/12/20 08:39:33;;;;;;;30.07;22.30;;;;;;;4.02;63.52;98344.31;8314259;28;20226;-67
2022/12/20 08:43:36;;;;;;;28.97;20.00;;;;;;;4.41;62.10;98329.28;8314891;28;20293;-67
2022/12/20 08:47:40;;;;;;;26.80;20.13;;;;;;;4.04;62.57;98310.09;8315160;28;20422;-66
2022/12/20 08:51:43;;;;;;;28.53;20.93;;;;;;;4.05;63.17;98323.75;8314737;28;20241;-66
2022/12/20 08:55:46;;;;;;;26.90;21.23;;;;;;;4.06;63.54;98302.41;8315053;28;20660;-67
2022/12/20 08:59:48;;;;;;;26.93;20.97;;;;;;;4.97;65.14;98313.91;8314861;28;20241;-66
2022/12/20 09:03:53;;;;;;;25.90;19.90;;;;;;;4.99;63.61;98312.16;8314336;28;20229;-66
2022/12/20 09:07:56;;;;;;;25.53;19.70;;;;;;;4.85;61.25;98313.22;8314351;28;20234;-66
2022/12/20 09:11:59;;;;;;;27.40;19.67;;;;;;;4.44;62.75;98316.44;8314809;28;20486;-66
2022/12/20 09:16:02;;;;;;;26.40;20.33;;;;;;;4.78;62.22;98318.47;8314253;28;20242;-66
2022/12/20 09:20:08;;;;;;;28.87;19.77;;;;;;;4.65;61.55;98315.25;8313792;28;20230;-66
2022/12/20 09:24:11;;;;;;;31.23;22.17;;;;;;;4.57;62.39;98322.22;8314353;28;20237;-67
2022/12/20 09:28:14;;;;;;;28.77;21.17;;;;;;;4.69;62.03;98310.06;8313766;28;20222;-66
2022/12/20 09:32:17;;;;;;;27.87;20.40;;;;;;;4.08;64.46;98300.66;8313812;28;20226;-66
2022/12/20 09:36:22;;;;;;;27.20;20.97;;;;;;;4.21;63.43;98307.31;8313813;28;20233;-66
2022/12/20 09:40:28;;;;;;;27.20;20.13;;;;;;;4.33;63.25;98310.59;8312702;28;20430;-67
2022/12/20 09:44:34;;;;;;;28.37;19.87;;;;;;;4.61;62.70;98299.06;8313346;28;20501;-67
2022/12/20 09:48:39;;;;;;;27.87;20.70;;;;;;;4.50;62.81;98277.84;8313258;28;20230;-67
2022/12/20 09:52:56;;;;;;;26.17;19.53;;;;;;;4.56;63.14;98279.47;8313090;28;20248;-66
2022/12/20 09:57:03;;;;;;;26.77;20.17;;;;;;;4.60;62.40;98258.88;8313016;28;20222;-67
2022/12/20 10:01:16;;;;;;;27.73;20.30;;;;;;;4.42;63.01;98229.25;8312699;28;20419;-66
2022/12/20 10:05:33;;;;;;;28.23;20.53;;;;;;;4.61;63.27;98254.63;8312689;28;20289;-66
2022/12/20 10:10:09;;;;;;;24.53;18.93;;;;;;;5.02;61.11;98253.91;8312412;28;20230;-66
2022/12/20 10:14:25;;;;;;;26.47;21.00;;;;;;;4.65;62.85;98261.38;8312086;28;20230;-66
2022/12/20 10:18:42;;;;;;;26.00;19.67;;;;;;;4.64;62.92;98257.13;8312463;28;20238;-66
2022/12/20 10:22:49;;;;;;;25.20;19.33;;;;;;;4.67;63.24;98239.97;8312144;28;20233;-66
2022/12/20 10:26:53;;;;;;;26.63;20.37;;;;;;;4.86;62.63;98235.38;8311464;28;20253;-68
2022/12/20 10:30:59;;;;;;;24.83;18.00;;;;;;;5.11;62.28;98236.66;8311891;28;20234;-66
2022/12/20 10:35:22;;;;;;;27.77;19.80;;;;;;;4.65;62.92;98235.75;8311515;28;20297;-67
2022/12/20 10:39:40;;;;;;;24.17;18.50;;;;;;;5.11;61.48;98199.00;8311909;28;20225;-68
2022/12/20 10:43:46;;;;;;;24.43;18.60;;;;;;;4.81;62.69;98226.06;8311622;28;20230;-67
2022/12/20 10:47:51;;;;;;;24.10;18.27;;;;;;;5.07;62.35;98229.00;8311772;28;20283;-67
2022/12/20 10:51:55;;;;;;;24.77;18.40;;;;;;;5.01;62.56;98244.53;8311119;28;20225;-68
2022/12/20 10:56:13;;;;;;;24.50;17.97;;;;;;;5.13;61.48;98216.94;8317052;28;20249;-67
2022/12/20 11:00:29;;;;;;;26.10;19.00;;;;;;;5.58;60.82;98238.34;8317624;28;20234;-66
2022/12/20 11:04:34;;;;;;;25.17;18.73;;;;;;;5.26;61.51;98215.84;8317906;28;20272;-66
2022/12/20 11:08:37;;;;;;;24.00;18.23;;;;;;;5.31;61.63;98214.00;8317466;28;20333;-66
2022/12/20 11:12:53;;;;;;;28.43;19.40;;;;;;;5.38;60.87;98210.47;8316972;28;20248;-67
2022/12/20 11:16:59;;;;;;;24.70;19.00;;;;;;;5.02;61.90;98174.34;8317270;28;20346;-66
2022/12/20 11:21:12;;;;;;;23.37;17.97;;;;;;;5.82;59.86;98188.13;8317180;28;20321;-66
2022/12/20 11:25:33;;;;;;;25.70;19.50;;;;;;;5.65;60.59;98198.81;8317248;28;20561;-66
2022/12/20 11:29:48;;;;;;;24.63;18.13;;;;;;;5.55;61.16;98168.19;8315663;28;20249;-66
2022/12/20 11:34:03;;;;;;;23.33;17.50;;;;;;;5.77;60.13;98173.69;8315442;28;20315;-66
2022/12/20 11:38:13;;;;;;;25.60;19.33;;;;;;;5.40;61.54;98179.63;8316478;28;20243;-66
2022/12/20 11:42:23;;;;;;;22.33;17.93;;;;;;;5.53;61.56;98180.22;8316508;28;20235;-66
2022/12/20 11:46:36;;;;;;;23.73;18.67;;;;;;;5.57;61.36;98158.72;8316381;28;20230;-65
2022/12/20 11:50:49;;;;;;;24.77;18.23;;;;;;;5.48;61.95;98147.78;8316398;28;20514;-65
2022/12/20 11:54:59;;;;;;;22.77;18.60;;;;;;;5.75;61.53;98130.06;8315445;28;20522;-69
2022/12/20 11:59:04;;;;;;;25.23;18.30;;;;;;;5.66;62.76;98132.84;8316039;28;20234;-67
2022/12/20 12:03:12;;;;;;;22.07;17.57;;;;;;;5.76;61.80;98111.19;8315445;28;20234;-67
2022/12/20 12:07:20;;;;;;;22.53;18.07;;;;;;;5.33;62.48;98099.28;8315663;28;20556;-66
2022/12/20 12:11:25;;;;;;;20.13;15.87;;;;;;;6.06;61.50;98126.81;8315494;28;20294;-66
2022/12/20 12:15:53;;;;;;;22.03;17.40;;;;;;;5.77;62.05;98114.59;8315295;28;20293;-66
2022/12/20 12:20:00;;;;;;;21.10;16.30;;;;;;;6.52;60.04;98120.53;8314984;28;20230;-65
2022/12/20 12:24:08;;;;;;;20.77;16.57;;;;;;;6.31;59.80;98103.09;8315016;28;20400;-66
2022/12/20 12:28:12;;;;;;;21.43;15.53;;;;;;;6.11;60.68;98111.25;8320725;28;20238;-65
2022/12/20 12:32:20;;;;;;;21.17;15.87;;;;;;;6.54;59.17;98112.78;8315327;28;20230;-65
2022/12/20 12:36:40;;;;;;;22.47;16.67;;;;;;;5.65;61.96;98110.56;8315120;28;20535;-65
2022/12/20 12:40:59;;;;;;;19.97;15.27;;;;;;;6.48;59.77;98097.50;8313124;28;20257;-65
2022/12/20 12:45:04;;;;;;;22.23;16.47;;;;;;;6.06;60.38;98094.22;8314353;28;20230;-65
2022/12/20 12:49:10;;;;;;;23.63;17.10;;;;;;;5.67;61.57;98077.97;8314673;28;20335;-65
2022/12/20 12:53:15;;;;;;;23.57;16.47;;;;;;;6.30;60.80;98084.22;8314941;28;20308;-65
2022/12/20 12:57:23;;;;;;;20.57;14.60;;;;;;;6.31;60.71;98074.78;8314382;28;20568;-65
2022/12/20 13:01:48;;;;;;;24.63;16.77;;;;;;;5.96;61.44;98069.63;8314512;28;20227;-66
2022/12/20 13:05:51;;;;;;;20.07;15.40;;;;;;;5.87;61.74;98069.81;8314182;28;20237;-65
2022/12/20 13:09:54;;;;;;;22.80;16.00;;;;;;;5.60;61.84;98041.31;8319072;28;20226;-66
2022/12/20 13:14:25;;;;;;;20.50;15.27;;;;;;;6.02;61.24;98037.78;8314623;28;20237;-67
2022/12/20 13:18:28;;;;;;;18.87;15.20;;;;;;;5.94;61.69;98048.25;8313417;28;20279;-66
2022/12/20 13:22:31;;;;;;;19.27;15.47;;;;;;;5.79;61.48;98015.19;8314068;28;20234;-67
2022/12/20 13:26:51;;;;;;;20.20;15.17;;;;;;;6.21;61.10;98039.00;8313557;28;20404;-66
2022/12/20 13:31:36;;;;;;;18.83;14.90;;;;;;;6.01;61.24;98031.78;8313442;28;20240;-67
2022/12/20 13:35:59;;;;;;;19.33;15.23;;;;;;;6.13;61.29;98047.78;8314052;28;20321;-66
2022/12/20 13:40:04;;;;;;;21.27;15.03;;;;;;;5.88;61.99;98062.06;8313310;28;20313;-66
2022/12/20 13:44:32;;;;;;;17.00;13.63;;;;;;;6.10;61.26;98071.88;8313680;28;20238;-66
2022/12/20 13:48:42;;;;;;;18.93;13.73;;;;;;;6.29;60.63;98074.81;8313462;28;20528;-67
2022/12/20 13:52:45;;;;;;;17.30;14.00;;;;;;;6.29;60.69;98072.25;8313061;28;20226;-65
2022/12/20 13:56:50;;;;;;;19.83;15.20;;;;;;;5.87;61.66;98055.22;8312774;28;20249;-66
2022/12/20 14:00:53;;;;;;;19.33;14.53;;;;;;;6.20;61.12;98078.44;8311790;28;20260;-67
2022/12/20 14:05:00;;;;;;;16.40;13.30;;;;;;;6.30;61.13;98080.81;8311955;28;20226;-66
2022/12/20 14:09:04;;;;;;;18.37;15.30;;;;;;;5.88;62.03;98049.22;8312374;28;20229;-67
2022/12/20 14:13:20;;;;;;;21.50;15.30;;;;;;;5.80;62.14;98068.28;8304327;28;20243;-65
2022/12/20 14:17:25;;;;;;;19.13;14.73;;;;;;;6.20;61.83;98051.91;8323785;28;20503;-65
2022/12/20 14:21:32;;;;;;;18.97;14.83;;;;;;;6.04;62.02;98041.16;8312921;28;20237;-67
2022/12/20 14:25:38;;;;;;;18.97;14.77;;;;;;;5.82;62.37;98044.22;8312887;28;20524;-66
2022/12/20 14:29:45;;;;;;;19.70;14.50;;;;;;;5.52;63.78;98024.38;8317697;28;20249;-66
2022/12/20 14:33:50;;;;;;;20.93;16.63;;;;;;;5.65;62.83;98000.97;8319494;28;20227;-66
2022/12/20 14:37:58;;;;;;;20.67;14.93;;;;;;;5.79;62.50;98013.47;8318612;28;20226;-65
2022/12/20 14:42:02;;;;;;;20.20;15.70;;;;;;;5.89;62.11;97978.09;8318951;28;20249;-65
2022/12/20 14:46:17;;;;;;;24.03;16.47;;;;;;;5.79;62.86;97981.78;8318712;28;20316;-65
2022/12/20 14:50:25;;;;;;;18.53;15.23;;;;;;;5.94;62.56;97990.81;8318970;28;20559;-67
2022/12/20 14:54:31;;;;;;;18.70;15.13;;;;;;;6.09;62.27;97995.59;8318615;28;20517;-67
2022/12/20 14:59:06;;;;;;;23.10;17.57;;;;;;;6.11;61.55;97998.13;8317451;28;20233;-66
2022/12/20 15:03:16;;;;;;;20.13;15.70;;;;;;;6.03;62.31;98009.44;8318110;28;20235;-66
2022/12/20 15:07:29;;;;;;;19.27;15.90;;;;;;;5.82;61.84;97989.41;8317654;28;20230;-66
2022/12/20 15:11:35;;;;;;;19.80;15.10;;;;;;;5.80;62.46;97993.75;8318114;28;20537;-66
2022/12/20 15:15:38;;;;;;;18.27;13.93;;;;;;;6.04;61.97;97982.88;8317466;28;20239;-66
2022/12/20 15:19:41;;;;;;;19.57;15.03;;;;;;;6.11;61.92;97986.16;8317542;28;20226;-66
2022/12/20 15:23:48;;;;;;;18.53;15.43;;;;;;;6.11;61.21;97987.84;8317406;28;20541;-66
2022/12/20 15:27:56;;;;;;;20.13;14.00;;;;;;;5.74;62.56;97969.03;8317605;28;20242;-66
2022/12/20 15:32:04;;;;;;;18.20;14.23;;;;;;;5.12;64.04;97933.69;8317042;28;20227;-66
2022/12/20 15:36:09;;;;;;;18.73;15.03;;;;;;;5.15;64.67;97981.56;8317263;28;20321;-68
2022/12/20 15:40:14;;;;;;;23.50;16.43;;;;;;;5.45;64.42;98001.41;8316241;28;20226;-67
2022/12/20 15:44:21;;;;;;;20.60;15.37;;;;;;;5.67;63.59;97988.91;8316784;28;20234;-66
2022/12/20 15:48:23;;;;;;;23.13;16.07;;;;;;;5.86;62.92;97985.88;8317076;28;20544;-66
2022/12/20 15:52:27;;;;;;;21.80;16.60;;;;;;;5.83;63.18;97968.81;8316704;28;20230;-67
2022/12/20 15:56:30;;;;;;;21.83;16.17;;;;;;;5.75;63.63;97982.72;8316571;28;20233;-67
2022/12/20 16:00:34;;;;;;;22.37;16.37;;;;;;;5.68;63.97;97974.34;8316031;28;20252;-67
2022/12/20 16:04:37;;;;;;;20.60;16.00;;;;;;;5.88;62.74;97995.25;8316180;28;20234;-66
2022/12/20 16:08:40;;;;;;;23.77;16.83;;;;;;;5.63;63.37;97979.56;8316046;28;20230;-66
2022/12/20 16:12:43;;;;;;;21.60;16.30;;;;;;;5.66;64.06;97976.09;8315657;28;20228;-66
2022/12/20 16:16:48;;;;;;;20.87;15.90;;;;;;;5.64;64.11;97972.72;8315104;28;20244;-67
2022/12/20 16:20:51;;;;;;;21.13;15.50;;;;;;;5.42;64.67;97959.53;8315482;28;20327;-64
2022/12/20 16:24:54;;;;;;;19.17;14.73;;;;;;;5.64;63.66;97960.72;8314864;28;20228;-64
2022/12/20 16:28:57;;;;;;;20.23;15.03;;;;;;;5.75;63.65;97964.72;8315292;28;20226;-65
2022/12/20 16:33:01;;;;;;;19.47;15.03;;;;;;;5.74;63.40;97947.66;8315566;28;20339;-65
2022/12/20 16:37:07;;;;;;;23.10;17.83;;;;;;;5.16;65.10;97943.03;8315389;28;20226;-64
2022/12/20 16:41:13;;;;;;;22.93;17.93;;;;;;;5.49;64.78;97909.72;8314702;28;20238;-65
2022/12/20 16:45:18;;;;;;;21.53;16.57;;;;;;;4.75;64.99;97815.66;8314683;28;20234;-65
2022/12/20 16:49:23;;;;;;;26.23;18.60;;;;;;;5.33;65.23;97936.63;8314560;28;20302;-65
2022/12/20 16:53:26;;;;;;;23.47;17.00;;;;;;;5.33;64.93;97934.06;8313591;28;20542;-64
2022/12/20 16:57:44;;;;;;;23.00;17.23;;;;;;;5.29;65.42;97930.72;8313294;28;20277;-65
2022/12/20 17:01:47;;;;;;;27.53;20.53;;;;;;;5.47;64.13;97921.75;8313957;28;20536;-66
2022/12/20 17:05:52;;;;;;;25.27;18.90;;;;;;;5.11;65.18;97933.75;8313888;28;20240;-66
2022/12/20 17:09:55;;;;;;;28.40;20.70;;;;;;;5.09;64.28;97929.47;8313287;28;20249;-66
2022/12/20 17:13:58;;;;;;;25.87;19.07;;;;;;;5.50;64.18;97929.38;8313882;28;20237;-65
2022/12/20 17:18:01;;;;;;;23.50;18.00;;;;;;;5.37;64.45;97933.97;8313460;28;20235;-66
2022/12/20 17:22:06;;;;;;;24.20;18.23;;;;;;;5.35;64.83;97932.31;8312560;28;20245;-66
2022/12/20 17:26:28;;;;;;;22.57;17.10;;;;;;;5.24;64.25;97932.59;8313866;28;20237;-66
2022/12/20 17:30:30;;;;;;;22.83;17.40;;;;;;;5.58;63.56;97949.72;8313607;28;20510;-66
2022/12/20 17:34:35;;;;;;;26.27;17.83;;;;;;;5.35;64.36;97943.44;8313752;28;20254;-66
2022/12/20 17:38:39;;;;;;;25.07;17.47;;;;;;;5.57;63.24;97966.88;8313462;28;20240;-67
2022/12/20 17:42:42;;;;;;;21.33;16.53;;;;;;;5.36;63.48;97906.59;8313246;28;20236;-69
2022/12/20 17:46:45;;;;;;;21.67;16.70;;;;;;;5.99;61.99;97965.88;8313912;28;20226;-68
2022/12/20 17:50:48;;;;;;;24.03;18.00;;;;;;;5.77;62.90;97958.69;8313332;28;20226;-68
2022/12/20 17:54:53;;;;;;;23.80;18.13;;;;;;;5.74;62.72;97961.31;8312796;28;20246;-69
2022/12/20 17:58:56;;;;;;;25.87;18.03;;;;;;;5.73;63.03;97969.94;8312090;28;20529;-68
2022/12/20 18:02:59;;;;;;;22.50;17.83;;;;;;;5.92;62.88;97974.59;8312131;28;20256;-67
2022/12/20 18:07:03;;;;;;;23.70;18.23;;;;;;;5.87;62.09;97973.00;8312551;28;20299;-67
2022/12/20 18:11:07;;;;;;;24.87;17.30;;;;;;;5.72;63.11;97969.97;8312401;28;20227;-68
2022/12/20 18:15:11;;;;;;;24.53;17.53;;;;;;;5.72;63.27;97980.25;8312414;28;20321;-68
2022/12/20 18:19:15;;;;;;;26.37;18.40;;;;;;;6.00;62.00;97958.13;8312129;28;20292;-66
2022/12/20 18:23:18;;;;;;;24.50;17.83;;;;;;;5.64;63.03;97918.78;8311902;28;20230;-66
2022/12/20 18:27:23;;;;;;;26.90;19.47;;;;;;;5.60;63.84;97943.69;8312107;28;20419;-66
2022/12/20 18:31:34;;;;;;;25.40;19.90;;;;;;;5.56;63.71;97948.94;8312352;28;20382;-67
2022/12/20 18:35:37;;;;;;;28.43;20.37;;;;;;;5.31;64.01;97938.41;8310562;28;20324;-66
2022/12/20 18:39:40;;;;;;;27.43;19.17;;;;;;;5.51;64.61;97941.34;8312724;28;20422;-67
2022/12/20 18:43:44;;;;;;;24.17;18.27;;;;;;;5.80;62.29;97921.78;8311811;28;20264;-67
2022/12/20 18:47:49;;;;;;;25.53;18.67;;;;;;;5.68;63.37;97944.34;8311820;28;20222;-67
2022/12/20 18:51:51;;;;;;;23.23;18.93;;;;;;;5.52;63.81;97937.91;8312088;28;20230;-67
2022/12/20 18:55:55;;;;;;;34.60;21.57;;;;;;;7.12;66.91;97910.34;8311866;28;20226;-68
2022/12/20 18:59:59;;;;;;;27.97;20.47;;;;;;;6.38;62.65;97881.66;8311980;28;20245;-68
2022/12/20 19:04:04;;;;;;;26.57;19.30;;;;;;;6.29;61.16;97896.53;8311584;28;20541;-67
2022/12/20 19:08:06;;;;;;;25.10;18.73;;;;;;;5.76;63.60;97897.06;8311883;28;20313;-67
2022/12/20 19:12:09;;;;;;;25.27;18.47;;;;;;;5.70;63.23;97892.91;8311115;28;20230;-66